sensor_id;sensor_type;location;lat;lon;timestamp;P1;durP1;ratioP1;P2;durP2;ratioP2
33413;SDS011;60055;41.884;12.534;2023-06-26T00:00:11;5.05;;;3.40;;
33413;SDS011;60055;41.884;12.534;2023-06-26T00:02:37;7.97;;;3.20;;
33413;SDS011;60055;41.884;12.534;2023-06-26T00:05:03;6.32;;;3.70;;
33413;SDS011;60055;41.884;12.534;2023-06-26T00:07:29;4.72;;;3.40;;
33413;SDS011;60055;41.884;12.534;2023-06-26T00:09:56;7.40;;;3.42;;
33413;SDS011;60055;41.884;12.534;2023-06-26T00:12:22;5.57;;;3.08;;
33413;SDS011;60055;41.884;12.534;2023-06-26T00:14:47;4.32;;;3.25;;
33413;SDS011;60055;41.884;12.534;2023-06-26T00:17:13;6.95;;;3.15;;
33413;SDS011;60055;41.884;12.534;2023-06-26T00:19:38;5.65;;;3.47;;
33413;SDS011;60055;41.884;12.534;2023-06-26T00:22:04;4.72;;;3.28;;
33413;SDS011;60055;41.884;12.534;2023-06-26T00:24:29;4.28;;;3.17;;
33413;SDS011;60055;41.884;12.534;2023-06-26T00:26:54;4.80;;;3.70;;
33413;SDS011;60055;41.884;12.534;2023-06-26T00:29:20;7.72;;;3.45;;
33413;SDS011;60055;41.884;12.534;2023-06-26T00:31:45;5.45;;;3.40;;
33413;SDS011;60055;41.884;12.534;2023-06-26T00:34:11;5.70;;;3.80;;
33413;SDS011;60055;41.884;12.534;2023-06-26T00:36:36;5.20;;;3.70;;
33413;SDS011;60055;41.884;12.534;2023-06-26T00:39:02;5.65;;;3.40;;
33413;SDS011;60055;41.884;12.534;2023-06-26T00:41:28;5.60;;;3.58;;
33413;SDS011;60055;41.884;12.534;2023-06-26T00:43:54;5.25;;;3.20;;
33413;SDS011;60055;41.884;12.534;2023-06-26T00:46:20;4.95;;;3.15;;
33413;SDS011;60055;41.884;12.534;2023-06-26T00:48:46;3.92;;;3.15;;
33413;SDS011;60055;41.884;12.534;2023-06-26T00:51:13;7.38;;;3.35;;
33413;SDS011;60055;41.884;12.534;2023-06-26T00:53:38;3.60;;;2.92;;
33413;SDS011;60055;41.884;12.534;2023-06-26T00:56:04;4.57;;;3.20;;
33413;SDS011;60055;41.884;12.534;2023-06-26T00:58:31;4.90;;;3.60;;
33413;SDS011;60055;41.884;12.534;2023-06-26T01:00:56;5.43;;;3.20;;
33413;SDS011;60055;41.884;12.534;2023-06-26T01:03:23;5.40;;;3.03;;
33413;SDS011;60055;41.884;12.534;2023-06-26T01:05:50;6.93;;;3.17;;
33413;SDS011;60055;41.884;12.534;2023-06-26T01:08:21;7.55;;;3.55;;
33413;SDS011;60055;41.884;12.534;2023-06-26T01:10:48;5.50;;;3.50;;
33413;SDS011;60055;41.884;12.534;2023-06-26T01:13:14;4.25;;;3.20;;
33413;SDS011;60055;41.884;12.534;2023-06-26T01:15:41;5.80;;;3.13;;
33413;SDS011;60055;41.884;12.534;2023-06-26T01:18:06;6.63;;;3.20;;
33413;SDS011;60055;41.884;12.534;2023-06-26T01:20:32;6.03;;;3.33;;
33413;SDS011;60055;41.884;12.534;2023-06-26T01:28:16;5.00;;;3.55;;
33413;SDS011;60055;41.884;12.534;2023-06-26T01:30:44;6.78;;;3.63;;
33413;SDS011;60055;41.884;12.534;2023-06-26T01:33:14;6.53;;;3.50;;
33413;SDS011;60055;41.884;12.534;2023-06-26T01:35:40;7.30;;;3.80;;
33413;SDS011;60055;41.884;12.534;2023-06-26T01:38:12;4.70;;;3.55;;
33413;SDS011;60055;41.884;12.534;2023-06-26T01:40:41;5.70;;;3.40;;
33413;SDS011;60055;41.884;12.534;2023-06-26T01:43:10;6.78;;;3.92;;
33413;SDS011;60055;41.884;12.534;2023-06-26T01:45:46;7.38;;;3.70;;
33413;SDS011;60055;41.884;12.534;2023-06-26T01:48:15;5.18;;;3.35;;
33413;SDS011;60055;41.884;12.534;2023-06-26T01:50:44;5.72;;;3.78;;
33413;SDS011;60055;41.884;12.534;2023-06-26T01:53:11;5.25;;;3.28;;
33413;SDS011;60055;41.884;12.534;2023-06-26T01:58:15;4.93;;;3.60;;
33413;SDS011;60055;41.884;12.534;2023-06-26T02:00:45;4.88;;;3.45;;
33413;SDS011;60055;41.884;12.534;2023-06-26T02:03:11;4.40;;;3.28;;
33413;SDS011;60055;41.884;12.534;2023-06-26T02:05:37;4.82;;;3.38;;
33413;SDS011;60055;41.884;12.534;2023-06-26T02:08:02;6.45;;;3.50;;
33413;SDS011;60055;41.884;12.534;2023-06-26T02:10:28;6.32;;;3.75;;
33413;SDS011;60055;41.884;12.534;2023-06-26T02:12:53;4.63;;;3.42;;
33413;SDS011;60055;41.884;12.534;2023-06-26T02:15:18;5.68;;;3.80;;
33413;SDS011;60055;41.884;12.534;2023-06-26T02:17:44;4.18;;;3.22;;
33413;SDS011;60055;41.884;12.534;2023-06-26T02:20:13;6.43;;;3.45;;
33413;SDS011;60055;41.884;12.534;2023-06-26T02:22:39;5.80;;;3.33;;
33413;SDS011;60055;41.884;12.534;2023-06-26T02:25:04;6.65;;;3.42;;
33413;SDS011;60055;41.884;12.534;2023-06-26T02:27:30;7.90;;;3.38;;
33413;SDS011;60055;41.884;12.534;2023-06-26T02:29:55;5.47;;;3.85;;
33413;SDS011;60055;41.884;12.534;2023-06-26T02:32:21;5.22;;;3.58;;
33413;SDS011;60055;41.884;12.534;2023-06-26T02:34:46;5.55;;;3.85;;
33413;SDS011;60055;41.884;12.534;2023-06-26T02:37:12;5.90;;;3.35;;
33413;SDS011;60055;41.884;12.534;2023-06-26T02:39:38;7.00;;;3.03;;
33413;SDS011;60055;41.884;12.534;2023-06-26T02:42:03;3.90;;;3.40;;
33413;SDS011;60055;41.884;12.534;2023-06-26T02:44:29;5.35;;;3.70;;
33413;SDS011;60055;41.884;12.534;2023-06-26T02:46:54;4.43;;;3.28;;
33413;SDS011;60055;41.884;12.534;2023-06-26T02:49:19;5.25;;;4.00;;
33413;SDS011;60055;41.884;12.534;2023-06-26T02:51:45;8.23;;;4.35;;
33413;SDS011;60055;41.884;12.534;2023-06-26T02:54:10;5.68;;;4.80;;
33413;SDS011;60055;41.884;12.534;2023-06-26T02:56:36;5.80;;;4.40;;
33413;SDS011;60055;41.884;12.534;2023-06-26T02:59:01;7.22;;;4.68;;
33413;SDS011;60055;41.884;12.534;2023-06-26T03:01:27;6.45;;;4.50;;
33413;SDS011;60055;41.884;12.534;2023-06-26T03:03:52;5.82;;;4.32;;
33413;SDS011;60055;41.884;12.534;2023-06-26T03:06:17;9.82;;;4.90;;
33413;SDS011;60055;41.884;12.534;2023-06-26T03:08:43;7.13;;;4.95;;
33413;SDS011;60055;41.884;12.534;2023-06-26T03:11:08;8.80;;;4.75;;
33413;SDS011;60055;41.884;12.534;2023-06-26T03:13:35;6.25;;;4.38;;
33413;SDS011;60055;41.884;12.534;2023-06-26T03:16:01;6.13;;;4.82;;
33413;SDS011;60055;41.884;12.534;2023-06-26T03:18:27;8.25;;;5.20;;
33413;SDS011;60055;41.884;12.534;2023-06-26T03:20:52;7.43;;;5.68;;
33413;SDS011;60055;41.884;12.534;2023-06-26T03:23:21;8.13;;;5.32;;
33413;SDS011;60055;41.884;12.534;2023-06-26T03:25:47;7.40;;;5.32;;
33413;SDS011;60055;41.884;12.534;2023-06-26T03:28:13;8.82;;;4.80;;
33413;SDS011;60055;41.884;12.534;2023-06-26T03:30:39;8.18;;;5.20;;
33413;SDS011;60055;41.884;12.534;2023-06-26T03:33:04;8.65;;;4.75;;
33413;SDS011;60055;41.884;12.534;2023-06-26T03:35:30;8.57;;;5.18;;
33413;SDS011;60055;41.884;12.534;2023-06-26T03:37:55;8.27;;;4.72;;
33413;SDS011;60055;41.884;12.534;2023-06-26T03:40:21;7.78;;;4.78;;
33413;SDS011;60055;41.884;12.534;2023-06-26T03:42:46;6.47;;;4.40;;
33413;SDS011;60055;41.884;12.534;2023-06-26T03:45:12;7.70;;;4.20;;
33413;SDS011;60055;41.884;12.534;2023-06-26T03:47:37;6.32;;;4.00;;
33413;SDS011;60055;41.884;12.534;2023-06-26T03:50:03;6.35;;;4.13;;
33413;SDS011;60055;41.884;12.534;2023-06-26T03:52:29;8.60;;;4.20;;
33413;SDS011;60055;41.884;12.534;2023-06-26T03:54:56;9.38;;;4.45;;
33413;SDS011;60055;41.884;12.534;2023-06-26T03:57:22;8.00;;;4.35;;
33413;SDS011;60055;41.884;12.534;2023-06-26T03:59:47;8.25;;;4.78;;
33413;SDS011;60055;41.884;12.534;2023-06-26T04:02:13;5.57;;;3.92;;
33413;SDS011;60055;41.884;12.534;2023-06-26T04:04:38;6.20;;;4.47;;
33413;SDS011;60055;41.884;12.534;2023-06-26T04:07:04;6.40;;;4.45;;
33413;SDS011;60055;41.884;12.534;2023-06-26T04:09:30;6.80;;;4.20;;
33413;SDS011;60055;41.884;12.534;2023-06-26T04:11:55;5.25;;;3.75;;
33413;SDS011;60055;41.884;12.534;2023-06-26T04:14:21;4.22;;;3.53;;
33413;SDS011;60055;41.884;12.534;2023-06-26T04:16:46;5.20;;;3.97;;
33413;SDS011;60055;41.884;12.534;2023-06-26T04:19:12;6.78;;;4.00;;
33413;SDS011;60055;41.884;12.534;2023-06-26T04:21:38;6.68;;;3.90;;
33413;SDS011;60055;41.884;12.534;2023-06-26T04:24:04;5.43;;;3.90;;
33413;SDS011;60055;41.884;12.534;2023-06-26T04:26:29;6.70;;;3.80;;
33413;SDS011;60055;41.884;12.534;2023-06-26T04:28:55;4.93;;;3.65;;
33413;SDS011;60055;41.884;12.534;2023-06-26T04:31:20;7.68;;;4.00;;
33413;SDS011;60055;41.884;12.534;2023-06-26T04:33:47;6.43;;;3.75;;
33413;SDS011;60055;41.884;12.534;2023-06-26T04:36:15;6.32;;;3.85;;
33413;SDS011;60055;41.884;12.534;2023-06-26T04:38:44;7.20;;;4.07;;
33413;SDS011;60055;41.884;12.534;2023-06-26T04:41:09;6.80;;;4.10;;
33413;SDS011;60055;41.884;12.534;2023-06-26T04:43:35;5.60;;;4.18;;
33413;SDS011;60055;41.884;12.534;2023-06-26T04:46:02;6.57;;;4.15;;
33413;SDS011;60055;41.884;12.534;2023-06-26T04:48:28;7.57;;;4.10;;
33413;SDS011;60055;41.884;12.534;2023-06-26T04:50:54;5.90;;;3.95;;
33413;SDS011;60055;41.884;12.534;2023-06-26T04:53:21;5.18;;;3.95;;
33413;SDS011;60055;41.884;12.534;2023-06-26T04:55:48;6.95;;;4.10;;
33413;SDS011;60055;41.884;12.534;2023-06-26T04:58:15;6.10;;;4.18;;
33413;SDS011;60055;41.884;12.534;2023-06-26T05:00:41;5.20;;;3.63;;
33413;SDS011;60055;41.884;12.534;2023-06-26T05:03:07;6.47;;;4.20;;
33413;SDS011;60055;41.884;12.534;2023-06-26T05:05:34;6.88;;;4.20;;
33413;SDS011;60055;41.884;12.534;2023-06-26T05:08:12;7.43;;;3.97;;
33413;SDS011;60055;41.884;12.534;2023-06-26T05:10:42;8.27;;;3.92;;
33413;SDS011;60055;41.884;12.534;2023-06-26T05:13:08;8.15;;;4.43;;
33413;SDS011;60055;41.884;12.534;2023-06-26T05:15:33;6.18;;;4.13;;
33413;SDS011;60055;41.884;12.534;2023-06-26T05:17:59;7.93;;;4.10;;
33413;SDS011;60055;41.884;12.534;2023-06-26T05:20:24;10.75;;;4.10;;
33413;SDS011;60055;41.884;12.534;2023-06-26T05:22:50;8.00;;;4.72;;
33413;SDS011;60055;41.884;12.534;2023-06-26T05:25:15;8.55;;;4.32;;
33413;SDS011;60055;41.884;12.534;2023-06-26T05:27:43;7.00;;;3.70;;
33413;SDS011;60055;41.884;12.534;2023-06-26T05:30:09;8.05;;;4.00;;
33413;SDS011;60055;41.884;12.534;2023-06-26T05:32:35;7.30;;;3.75;;
33413;SDS011;60055;41.884;12.534;2023-06-26T05:35:02;6.40;;;4.03;;
33413;SDS011;60055;41.884;12.534;2023-06-26T05:37:29;7.80;;;4.00;;
33413;SDS011;60055;41.884;12.534;2023-06-26T05:39:56;8.25;;;3.97;;
33413;SDS011;60055;41.884;12.534;2023-06-26T05:42:21;7.55;;;4.35;;
33413;SDS011;60055;41.884;12.534;2023-06-26T05:44:47;8.20;;;4.10;;
33413;SDS011;60055;41.884;12.534;2023-06-26T05:47:13;10.82;;;4.47;;
33413;SDS011;60055;41.884;12.534;2023-06-26T05:49:38;6.95;;;3.60;;
33413;SDS011;60055;41.884;12.534;2023-06-26T05:52:04;7.07;;;3.80;;
33413;SDS011;60055;41.884;12.534;2023-06-26T05:54:29;7.70;;;3.55;;
33413;SDS011;60055;41.884;12.534;2023-06-26T05:56:58;6.53;;;4.20;;
33413;SDS011;60055;41.884;12.534;2023-06-26T05:59:26;8.20;;;4.03;;
33413;SDS011;60055;41.884;12.534;2023-06-26T06:01:52;6.43;;;3.95;;
33413;SDS011;60055;41.884;12.534;2023-06-26T06:04:18;8.13;;;3.75;;
33413;SDS011;60055;41.884;12.534;2023-06-26T06:06:43;7.20;;;3.75;;
33413;SDS011;60055;41.884;12.534;2023-06-26T06:09:08;5.97;;;3.80;;
33413;SDS011;60055;41.884;12.534;2023-06-26T06:11:34;6.80;;;4.00;;
33413;SDS011;60055;41.884;12.534;2023-06-26T06:13:59;5.78;;;3.30;;
33413;SDS011;60055;41.884;12.534;2023-06-26T06:16:25;6.65;;;3.75;;
33413;SDS011;60055;41.884;12.534;2023-06-26T06:18:51;6.85;;;3.70;;
33413;SDS011;60055;41.884;12.534;2023-06-26T06:21:16;7.00;;;4.05;;
33413;SDS011;60055;41.884;12.534;2023-06-26T06:23:42;6.72;;;3.55;;
33413;SDS011;60055;41.884;12.534;2023-06-26T06:26:07;7.40;;;3.45;;
33413;SDS011;60055;41.884;12.534;2023-06-26T06:28:33;8.93;;;3.90;;
33413;SDS011;60055;41.884;12.534;2023-06-26T06:30:58;7.20;;;3.80;;
33413;SDS011;60055;41.884;12.534;2023-06-26T06:33:24;8.07;;;3.80;;
33413;SDS011;60055;41.884;12.534;2023-06-26T06:35:49;11.63;;;4.00;;
33413;SDS011;60055;41.884;12.534;2023-06-26T06:38:14;7.32;;;3.80;;
33413;SDS011;60055;41.884;12.534;2023-06-26T06:40:40;6.40;;;3.63;;
33413;SDS011;60055;41.884;12.534;2023-06-26T06:43:05;4.85;;;3.45;;
33413;SDS011;60055;41.884;12.534;2023-06-26T06:45:31;7.53;;;3.55;;
33413;SDS011;60055;41.884;12.534;2023-06-26T06:47:56;6.97;;;3.00;;
33413;SDS011;60055;41.884;12.534;2023-06-26T06:50:21;5.60;;;3.78;;
33413;SDS011;60055;41.884;12.534;2023-06-26T06:52:47;7.13;;;3.53;;
33413;SDS011;60055;41.884;12.534;2023-06-26T06:55:12;5.38;;;3.60;;
33413;SDS011;60055;41.884;12.534;2023-06-26T06:57:38;6.05;;;3.90;;
33413;SDS011;60055;41.884;12.534;2023-06-26T07:00:05;5.68;;;3.50;;
33413;SDS011;60055;41.884;12.534;2023-06-26T07:02:34;7.32;;;3.35;;
33413;SDS011;60055;41.884;12.534;2023-06-26T07:05:01;6.35;;;3.75;;
33413;SDS011;60055;41.884;12.534;2023-06-26T07:07:28;7.47;;;3.50;;
33413;SDS011;60055;41.884;12.534;2023-06-26T07:09:59;7.80;;;3.58;;
33413;SDS011;60055;41.884;12.534;2023-06-26T07:12:28;6.25;;;3.72;;
33413;SDS011;60055;41.884;12.534;2023-06-26T07:14:54;7.82;;;3.88;;
33413;SDS011;60055;41.884;12.534;2023-06-26T07:17:21;7.88;;;3.65;;
33413;SDS011;60055;41.884;12.534;2023-06-26T07:19:46;5.07;;;3.55;;
33413;SDS011;60055;41.884;12.534;2023-06-26T07:22:13;8.40;;;3.90;;
33413;SDS011;60055;41.884;12.534;2023-06-26T07:24:38;4.65;;;3.35;;
33413;SDS011;60055;41.884;12.534;2023-06-26T07:27:03;6.45;;;3.92;;
33413;SDS011;60055;41.884;12.534;2023-06-26T07:29:29;9.38;;;3.50;;
33413;SDS011;60055;41.884;12.534;2023-06-26T07:31:54;7.47;;;3.65;;
33413;SDS011;60055;41.884;12.534;2023-06-26T07:34:20;5.20;;;3.13;;
33413;SDS011;60055;41.884;12.534;2023-06-26T07:36:45;7.72;;;3.38;;
33413;SDS011;60055;41.884;12.534;2023-06-26T07:39:11;6.82;;;3.42;;
33413;SDS011;60055;41.884;12.534;2023-06-26T07:41:36;7.32;;;3.20;;
33413;SDS011;60055;41.884;12.534;2023-06-26T07:44:02;6.10;;;3.40;;
33413;SDS011;60055;41.884;12.534;2023-06-26T07:46:27;7.10;;;3.60;;
33413;SDS011;60055;41.884;12.534;2023-06-26T07:48:53;7.07;;;3.60;;
33413;SDS011;60055;41.884;12.534;2023-06-26T07:51:19;5.18;;;3.15;;
33413;SDS011;60055;41.884;12.534;2023-06-26T07:53:45;7.95;;;4.15;;
33413;SDS011;60055;41.884;12.534;2023-06-26T07:56:10;4.93;;;3.47;;
33413;SDS011;60055;41.884;12.534;2023-06-26T07:58:35;7.32;;;3.40;;
33413;SDS011;60055;41.884;12.534;2023-06-26T08:01:01;5.32;;;3.25;;
33413;SDS011;60055;41.884;12.534;2023-06-26T08:03:26;4.78;;;3.30;;
33413;SDS011;60055;41.884;12.534;2023-06-26T08:05:52;10.88;;;4.00;;
33413;SDS011;60055;41.884;12.534;2023-06-26T08:08:17;6.05;;;3.40;;
33413;SDS011;60055;41.884;12.534;2023-06-26T08:10:43;8.13;;;3.78;;
33413;SDS011;60055;41.884;12.534;2023-06-26T08:13:08;9.45;;;4.45;;
33413;SDS011;60055;41.884;12.534;2023-06-26T08:15:34;7.95;;;4.07;;
33413;SDS011;60055;41.884;12.534;2023-06-26T08:18:00;6.45;;;3.65;;
33413;SDS011;60055;41.884;12.534;2023-06-26T08:20:25;5.82;;;3.33;;
33413;SDS011;60055;41.884;12.534;2023-06-26T08:22:51;6.53;;;3.50;;
33413;SDS011;60055;41.884;12.534;2023-06-26T08:25:17;8.98;;;3.88;;
33413;SDS011;60055;41.884;12.534;2023-06-26T08:27:43;9.75;;;3.75;;
33413;SDS011;60055;41.884;12.534;2023-06-26T08:30:08;9.48;;;3.80;;
33413;SDS011;60055;41.884;12.534;2023-06-26T08:32:34;7.03;;;3.80;;
33413;SDS011;60055;41.884;12.534;2023-06-26T08:34:59;12.25;;;3.40;;
33413;SDS011;60055;41.884;12.534;2023-06-26T08:37:25;7.18;;;3.75;;
33413;SDS011;60055;41.884;12.534;2023-06-26T08:39:50;9.15;;;4.28;;
33413;SDS011;60055;41.884;12.534;2023-06-26T08:42:16;5.72;;;3.75;;
33413;SDS011;60055;41.884;12.534;2023-06-26T08:44:41;7.90;;;3.47;;
33413;SDS011;60055;41.884;12.534;2023-06-26T08:47:07;10.13;;;5.15;;
33413;SDS011;60055;41.884;12.534;2023-06-26T08:52:22;7.68;;;3.80;;
33413;SDS011;60055;41.884;12.534;2023-06-26T08:54:58;8.07;;;3.55;;
33413;SDS011;60055;41.884;12.534;2023-06-26T08:57:25;8.63;;;3.50;;
33413;SDS011;60055;41.884;12.534;2023-06-26T08:59:51;10.75;;;3.85;;
33413;SDS011;60055;41.884;12.534;2023-06-26T09:02:17;9.40;;;3.63;;
33413;SDS011;60055;41.884;12.534;2023-06-26T09:04:43;11.02;;;3.83;;
33413;SDS011;60055;41.884;12.534;2023-06-26T09:07:09;8.95;;;3.67;;
33413;SDS011;60055;41.884;12.534;2023-06-26T09:09:35;5.80;;;3.47;;
33413;SDS011;60055;41.884;12.534;2023-06-26T09:12:04;7.70;;;3.67;;
33413;SDS011;60055;41.884;12.534;2023-06-26T09:14:29;11.48;;;3.88;;
33413;SDS011;60055;41.884;12.534;2023-06-26T09:16:55;8.05;;;3.80;;
33413;SDS011;60055;41.884;12.534;2023-06-26T09:19:20;8.38;;;4.07;;
33413;SDS011;60055;41.884;12.534;2023-06-26T09:21:46;8.38;;;3.83;;
33413;SDS011;60055;41.884;12.534;2023-06-26T09:24:14;7.68;;;3.95;;
33413;SDS011;60055;41.884;12.534;2023-06-26T09:26:41;7.18;;;3.92;;
33413;SDS011;60055;41.884;12.534;2023-06-26T09:29:07;8.32;;;3.88;;
33413;SDS011;60055;41.884;12.534;2023-06-26T09:31:33;9.40;;;3.75;;
33413;SDS011;60055;41.884;12.534;2023-06-26T09:34:01;11.57;;;4.28;;
33413;SDS011;60055;41.884;12.534;2023-06-26T09:36:29;5.78;;;3.70;;
33413;SDS011;60055;41.884;12.534;2023-06-26T09:39:01;8.85;;;4.15;;
33413;SDS011;60055;41.884;12.534;2023-06-26T09:41:27;14.52;;;4.50;;
33413;SDS011;60055;41.884;12.534;2023-06-26T09:43:53;6.88;;;3.83;;
33413;SDS011;60055;41.884;12.534;2023-06-26T09:46:26;9.32;;;3.65;;
33413;SDS011;60055;41.884;12.534;2023-06-26T09:49:09;9.32;;;4.00;;
33413;SDS011;60055;41.884;12.534;2023-06-26T09:51:39;8.40;;;3.78;;
33413;SDS011;60055;41.884;12.534;2023-06-26T09:54:06;9.98;;;3.92;;
33413;SDS011;60055;41.884;12.534;2023-06-26T09:56:32;7.80;;;3.80;;
33413;SDS011;60055;41.884;12.534;2023-06-26T09:58:59;10.77;;;3.78;;
33413;SDS011;60055;41.884;12.534;2023-06-26T10:01:29;6.85;;;3.80;;
33413;SDS011;60055;41.884;12.534;2023-06-26T10:03:56;9.05;;;3.42;;
33413;SDS011;60055;41.884;12.534;2023-06-26T10:06:24;5.15;;;3.50;;
33413;SDS011;60055;41.884;12.534;2023-06-26T10:08:54;6.97;;;3.40;;
33413;SDS011;60055;41.884;12.534;2023-06-26T10:11:21;7.57;;;3.50;;
33413;SDS011;60055;41.884;12.534;2023-06-26T10:13:49;6.10;;;3.50;;
33413;SDS011;60055;41.884;12.534;2023-06-26T10:16:18;13.25;;;3.65;;
33413;SDS011;60055;41.884;12.534;2023-06-26T10:18:49;6.18;;;3.60;;
33413;SDS011;60055;41.884;12.534;2023-06-26T10:21:18;5.25;;;3.67;;
33413;SDS011;60055;41.884;12.534;2023-06-26T10:23:47;7.72;;;3.67;;
33413;SDS011;60055;41.884;12.534;2023-06-26T10:26:14;6.70;;;3.60;;
33413;SDS011;60055;41.884;12.534;2023-06-26T10:28:41;6.85;;;3.42;;
33413;SDS011;60055;41.884;12.534;2023-06-26T10:31:10;5.30;;;3.55;;
33413;SDS011;60055;41.884;12.534;2023-06-26T10:33:37;7.47;;;3.45;;
33413;SDS011;60055;41.884;12.534;2023-06-26T10:36:17;5.68;;;3.15;;
33413;SDS011;60055;41.884;12.534;2023-06-26T10:38:54;7.13;;;3.70;;
33413;SDS011;60055;41.884;12.534;2023-06-26T10:41:23;6.57;;;3.60;;
33413;SDS011;60055;41.884;12.534;2023-06-26T10:43:49;7.60;;;3.60;;
33413;SDS011;60055;41.884;12.534;2023-06-26T10:46:53;6.40;;;3.47;;
33413;SDS011;60055;41.884;12.534;2023-06-26T10:49:21;7.05;;;3.50;;
33413;SDS011;60055;41.884;12.534;2023-06-26T10:51:50;8.10;;;4.35;;
33413;SDS011;60055;41.884;12.534;2023-06-26T10:54:17;5.53;;;3.47;;
33413;SDS011;60055;41.884;12.534;2023-06-26T10:56:47;7.85;;;3.30;;
33413;SDS011;60055;41.884;12.534;2023-06-26T10:59:19;3.75;;;3.03;;
33413;SDS011;60055;41.884;12.534;2023-06-26T11:01:46;5.55;;;3.65;;
33413;SDS011;60055;41.884;12.534;2023-06-26T11:09:55;9.05;;;3.92;;
33413;SDS011;60055;41.884;12.534;2023-06-26T11:15:10;7.80;;;4.30;;
33413;SDS011;60055;41.884;12.534;2023-06-26T11:17:38;6.32;;;3.53;;
33413;SDS011;60055;41.884;12.534;2023-06-26T11:20:11;7.75;;;3.80;;
33413;SDS011;60055;41.884;12.534;2023-06-26T11:22:38;6.13;;;3.35;;
33413;SDS011;60055;41.884;12.534;2023-06-26T11:25:05;7.60;;;3.78;;
33413;SDS011;60055;41.884;12.534;2023-06-26T11:27:32;6.65;;;3.38;;
33413;SDS011;60055;41.884;12.534;2023-06-26T11:30:03;7.78;;;3.78;;
33413;SDS011;60055;41.884;12.534;2023-06-26T11:32:29;6.15;;;3.90;;
33413;SDS011;60055;41.884;12.534;2023-06-26T11:34:54;4.97;;;3.35;;
33413;SDS011;60055;41.884;12.534;2023-06-26T11:37:21;6.15;;;3.78;;
33413;SDS011;60055;41.884;12.534;2023-06-26T11:39:47;6.30;;;4.00;;
33413;SDS011;60055;41.884;12.534;2023-06-26T11:42:13;7.13;;;3.72;;
33413;SDS011;60055;41.884;12.534;2023-06-26T11:44:41;8.68;;;3.80;;
33413;SDS011;60055;41.884;12.534;2023-06-26T11:47:11;5.40;;;3.78;;
33413;SDS011;60055;41.884;12.534;2023-06-26T11:49:38;8.00;;;3.90;;
33413;SDS011;60055;41.884;12.534;2023-06-26T11:52:03;6.72;;;3.90;;
33413;SDS011;60055;41.884;12.534;2023-06-26T11:54:29;6.68;;;3.70;;
33413;SDS011;60055;41.884;12.534;2023-06-26T11:56:56;10.65;;;4.65;;
33413;SDS011;60055;41.884;12.534;2023-06-26T11:59:22;10.10;;;4.70;;
33413;SDS011;60055;41.884;12.534;2023-06-26T12:01:49;9.48;;;4.75;;
33413;SDS011;60055;41.884;12.534;2023-06-26T12:04:16;7.88;;;4.15;;
33413;SDS011;60055;41.884;12.534;2023-06-26T12:06:47;6.85;;;4.13;;
33413;SDS011;60055;41.884;12.534;2023-06-26T12:09:15;8.13;;;3.67;;
33413;SDS011;60055;41.884;12.534;2023-06-26T12:11:43;6.10;;;3.65;;
33413;SDS011;60055;41.884;12.534;2023-06-26T12:14:10;10.43;;;4.03;;
33413;SDS011;60055;41.884;12.534;2023-06-26T12:16:36;6.03;;;3.67;;
33413;SDS011;60055;41.884;12.534;2023-06-26T12:19:03;6.00;;;3.92;;
33413;SDS011;60055;41.884;12.534;2023-06-26T12:24:09;5.28;;;3.70;;
33413;SDS011;60055;41.884;12.534;2023-06-26T12:26:37;7.22;;;4.53;;
33413;SDS011;60055;41.884;12.534;2023-06-26T12:29:06;7.95;;;4.30;;
33413;SDS011;60055;41.884;12.534;2023-06-26T12:31:33;11.88;;;4.45;;
33413;SDS011;60055;41.884;12.534;2023-06-26T12:34:00;9.68;;;4.30;;
33413;SDS011;60055;41.884;12.534;2023-06-26T12:36:25;11.35;;;4.22;;
33413;SDS011;60055;41.884;12.534;2023-06-26T12:38:52;19.65;;;4.45;;
33413;SDS011;60055;41.884;12.534;2023-06-26T12:41:19;10.02;;;4.47;;
33413;SDS011;60055;41.884;12.534;2023-06-26T12:43:45;12.57;;;4.43;;
33413;SDS011;60055;41.884;12.534;2023-06-26T12:46:11;9.98;;;4.68;;
33413;SDS011;60055;41.884;12.534;2023-06-26T12:48:43;13.02;;;4.30;;
33413;SDS011;60055;41.884;12.534;2023-06-26T12:51:11;14.75;;;5.00;;
33413;SDS011;60055;41.884;12.534;2023-06-26T12:53:40;9.93;;;5.35;;
33413;SDS011;60055;41.884;12.534;2023-06-26T12:56:06;13.43;;;4.25;;
33413;SDS011;60055;41.884;12.534;2023-06-26T12:58:32;8.25;;;4.07;;
33413;SDS011;60055;41.884;12.534;2023-06-26T13:00:59;9.23;;;4.07;;
33413;SDS011;60055;41.884;12.534;2023-06-26T13:03:24;7.00;;;4.22;;
33413;SDS011;60055;41.884;12.534;2023-06-26T13:05:50;13.13;;;4.18;;
33413;SDS011;60055;41.884;12.534;2023-06-26T13:08:16;8.63;;;4.40;;
33413;SDS011;60055;41.884;12.534;2023-06-26T13:10:43;8.00;;;4.53;;
33413;SDS011;60055;41.884;12.534;2023-06-26T13:13:10;8.75;;;3.90;;
33413;SDS011;60055;41.884;12.534;2023-06-26T13:15:35;10.43;;;4.00;;
33413;SDS011;60055;41.884;12.534;2023-06-26T13:18:01;8.65;;;4.28;;
33413;SDS011;60055;41.884;12.534;2023-06-26T13:20:26;9.48;;;4.30;;
33413;SDS011;60055;41.884;12.534;2023-06-26T13:22:53;12.98;;;4.35;;
33413;SDS011;60055;41.884;12.534;2023-06-26T13:25:19;7.97;;;4.30;;
33413;SDS011;60055;41.884;12.534;2023-06-26T13:27:44;9.95;;;4.57;;
33413;SDS011;60055;41.884;12.534;2023-06-26T13:30:10;7.88;;;3.90;;
33413;SDS011;60055;41.884;12.534;2023-06-26T13:32:36;12.00;;;4.07;;
33413;SDS011;60055;41.884;12.534;2023-06-26T13:35:02;9.13;;;4.20;;
33413;SDS011;60055;41.884;12.534;2023-06-26T13:37:28;9.38;;;4.03;;
33413;SDS011;60055;41.884;12.534;2023-06-26T13:39:54;7.22;;;3.90;;
33413;SDS011;60055;41.884;12.534;2023-06-26T13:42:20;7.90;;;3.70;;
33413;SDS011;60055;41.884;12.534;2023-06-26T13:44:45;12.02;;;3.80;;
33413;SDS011;60055;41.884;12.534;2023-06-26T13:47:12;8.15;;;4.40;;
33413;SDS011;60055;41.884;12.534;2023-06-26T13:49:38;8.35;;;4.45;;
33413;SDS011;60055;41.884;12.534;2023-06-26T13:52:04;7.90;;;3.78;;
33413;SDS011;60055;41.884;12.534;2023-06-26T13:54:33;9.15;;;3.72;;
33413;SDS011;60055;41.884;12.534;2023-06-26T13:57:01;6.90;;;3.90;;
33413;SDS011;60055;41.884;12.534;2023-06-26T13:59:27;8.43;;;3.80;;
33413;SDS011;60055;41.884;12.534;2023-06-26T14:01:53;14.10;;;4.30;;
33413;SDS011;60055;41.884;12.534;2023-06-26T14:04:18;7.03;;;4.28;;
33413;SDS011;60055;41.884;12.534;2023-06-26T14:06:44;11.35;;;4.22;;
33413;SDS011;60055;41.884;12.534;2023-06-26T14:09:10;9.68;;;4.70;;
33413;SDS011;60055;41.884;12.534;2023-06-26T14:11:36;8.35;;;4.32;;
33413;SDS011;60055;41.884;12.534;2023-06-26T14:14:01;8.60;;;4.30;;
33413;SDS011;60055;41.884;12.534;2023-06-26T14:16:27;9.60;;;4.10;;
33413;SDS011;60055;41.884;12.534;2023-06-26T14:18:54;12.13;;;4.35;;
33413;SDS011;60055;41.884;12.534;2023-06-26T14:21:20;7.93;;;4.50;;
33413;SDS011;60055;41.884;12.534;2023-06-26T14:23:46;10.13;;;4.20;;
33413;SDS011;60055;41.884;12.534;2023-06-26T14:26:11;13.80;;;4.50;;
33413;SDS011;60055;41.884;12.534;2023-06-26T14:28:37;9.02;;;4.50;;
33413;SDS011;60055;41.884;12.534;2023-06-26T14:31:04;7.25;;;4.20;;
33413;SDS011;60055;41.884;12.534;2023-06-26T14:33:30;13.95;;;4.97;;
33413;SDS011;60055;41.884;12.534;2023-06-26T14:35:55;10.77;;;4.57;;
33413;SDS011;60055;41.884;12.534;2023-06-26T14:38:21;8.32;;;4.32;;
33413;SDS011;60055;41.884;12.534;2023-06-26T14:40:46;8.02;;;4.40;;
33413;SDS011;60055;41.884;12.534;2023-06-26T14:43:11;7.25;;;4.43;;
33413;SDS011;60055;41.884;12.534;2023-06-26T14:45:37;10.88;;;4.47;;
33413;SDS011;60055;41.884;12.534;2023-06-26T14:48:05;9.90;;;4.70;;
33413;SDS011;60055;41.884;12.534;2023-06-26T14:50:31;7.43;;;4.47;;